createdAt,value
2018-08-13T00:01:27.354Z,1.20
2018-08-13T00:04:01.844Z,1.43
2018-08-13T00:06:36.400Z,1.40
2018-08-13T00:09:11.085Z,1.50
2018-08-13T00:11:45.977Z,1.17
2018-08-13T00:14:20.496Z,1.30
2018-08-13T00:16:54.952Z,1.43
2018-08-13T00:19:29.340Z,1.60
2018-08-13T00:22:03.964Z,1.40
2018-08-13T00:24:38.725Z,1.60
2018-08-13T00:27:13.251Z,1.33
2018-08-13T00:29:47.837Z,1.40
2018-08-13T00:32:22.724Z,1.70
2018-08-13T00:34:57.296Z,1.60
2018-08-13T00:37:31.900Z,1.57
2018-08-13T00:40:09.645Z,1.47
2018-08-13T00:42:44.368Z,1.60
2018-08-13T00:45:19.059Z,1.40
2018-08-13T00:47:53.689Z,1.30
2018-08-13T00:50:28.517Z,1.40
2018-08-13T00:53:03.167Z,1.45
2018-08-13T00:55:37.864Z,1.73
2018-08-13T00:58:12.407Z,1.70
2018-08-13T01:00:47.051Z,1.60
2018-08-13T01:03:21.700Z,1.53
2018-08-13T01:05:56.362Z,1.30
2018-08-13T01:08:31.092Z,1.60
2018-08-13T01:11:05.958Z,1.70
2018-08-13T01:13:40.591Z,1.30
2018-08-13T01:16:15.193Z,1.37
2018-08-13T01:18:49.909Z,1.40
2018-08-13T01:21:24.598Z,1.40
2018-08-13T01:23:59.378Z,1.50
2018-08-13T01:26:33.978Z,1.67
2018-08-13T01:29:08.454Z,1.40
2018-08-13T01:31:43.328Z,1.50
2018-08-13T01:34:17.928Z,1.60
2018-08-13T01:36:52.665Z,1.57
2018-08-13T01:39:27.178Z,1.80
2018-08-13T01:42:01.755Z,1.40
2018-08-13T01:44:36.470Z,1.20
2018-08-13T01:47:11.309Z,1.93
2018-08-13T01:49:46.296Z,1.53
2018-08-13T01:52:20.970Z,1.60
2018-08-13T01:54:55.601Z,1.53
2018-08-13T01:57:30.277Z,1.70
2018-08-13T02:00:08.305Z,1.43
2018-08-13T02:02:43.104Z,1.57
2018-08-13T02:05:18.024Z,1.50
2018-08-13T02:07:52.752Z,1.80
2018-08-13T02:10:27.758Z,1.60
2018-08-13T02:13:02.665Z,1.53
2018-08-13T02:15:37.388Z,1.53
2018-08-13T02:18:12.008Z,1.50
2018-08-13T02:20:46.591Z,1.70
2018-08-13T02:23:21.360Z,1.40
2018-08-13T02:25:55.932Z,1.50
2018-08-13T02:28:30.578Z,1.57
2018-08-13T02:31:05.141Z,1.50
2018-08-13T02:33:53.780Z,1.47
2018-08-13T02:36:28.433Z,1.50
2018-08-13T02:39:03.245Z,1.53
2018-08-13T02:41:37.793Z,1.50
2018-08-13T02:44:13.285Z,1.70
2018-08-13T02:46:48.040Z,1.50
2018-08-13T02:49:36.003Z,1.60
2018-08-13T02:55:10.973Z,1.50
2018-08-13T02:57:45.593Z,1.40
2018-08-13T03:03:21.121Z,1.60
2018-08-13T03:08:58.653Z,1.90
2018-08-13T03:11:44.746Z,1.50
2018-08-13T03:14:28.812Z,1.53
2018-08-13T03:17:03.314Z,1.30
2018-08-13T03:19:37.837Z,1.50
2018-08-13T03:22:12.439Z,1.33
2018-08-13T03:24:47.029Z,1.60
2018-08-13T03:27:21.656Z,1.83
2018-08-13T03:29:56.146Z,1.20
2018-08-13T03:32:30.757Z,1.60
2018-08-13T03:35:05.697Z,1.50
2018-08-13T03:37:40.408Z,1.40
2018-08-13T03:40:15.108Z,1.70
2018-08-13T03:42:49.688Z,1.57
2018-08-13T03:45:24.380Z,1.50
2018-08-13T03:47:59.755Z,1.80
2018-08-13T03:50:35.165Z,1.53
2018-08-13T03:53:09.910Z,1.60
2018-08-13T03:55:44.482Z,1.57
2018-08-13T03:58:19.093Z,1.40
2018-08-13T04:00:53.828Z,1.80
2018-08-13T04:03:28.622Z,1.50
2018-08-13T04:06:03.264Z,1.53
2018-08-13T04:08:37.933Z,1.47
2018-08-13T04:11:12.645Z,1.47
2018-08-13T04:13:47.363Z,1.70
2018-08-13T04:16:22.329Z,1.27
2018-08-13T04:18:57.384Z,1.53
2018-08-13T04:21:31.882Z,1.50
2018-08-13T04:24:06.477Z,1.90
2018-08-13T04:26:41.221Z,1.80
2018-08-13T04:29:15.880Z,1.80
2018-08-13T04:31:50.613Z,1.60
2018-08-13T04:34:25.412Z,1.87
2018-08-13T04:36:59.868Z,4.93
2018-08-13T04:39:34.435Z,1.67
2018-08-13T04:42:09.188Z,2.00
2018-08-13T04:44:43.708Z,2.50
2018-08-13T04:47:18.377Z,2.30
2018-08-13T04:49:53.027Z,1.90
2018-08-13T04:52:27.620Z,2.53
2018-08-13T04:55:02.359Z,2.53
2018-08-13T04:57:37.451Z,2.87
2018-08-13T05:00:12.597Z,2.80
2018-08-13T05:02:47.444Z,2.90
2018-08-13T05:05:21.884Z,2.92
2018-08-13T05:07:56.552Z,3.02
2018-08-13T05:10:31.189Z,3.17
2018-08-13T05:13:05.696Z,3.13
2018-08-13T05:15:40.200Z,2.87
2018-08-13T05:18:15.820Z,3.20
2018-08-13T05:20:50.429Z,3.02
2018-08-13T05:23:24.930Z,3.20
2018-08-13T05:25:59.503Z,3.70
2018-08-13T05:28:34.312Z,3.10
2018-08-13T05:31:08.922Z,3.47
2018-08-13T05:33:43.501Z,3.60
2018-08-13T05:36:18.061Z,4.37
2018-08-13T05:38:52.683Z,3.83
2018-08-13T05:41:27.200Z,3.53
2018-08-13T05:44:01.889Z,3.40
2018-08-13T05:46:36.851Z,3.43
2018-08-13T05:49:11.582Z,4.27
2018-08-13T05:51:46.008Z,4.07
2018-08-13T05:54:20.776Z,3.80
2018-08-13T05:56:55.390Z,4.20
2018-08-13T05:59:30.065Z,3.43
2018-08-13T06:02:04.842Z,3.60
2018-08-13T06:04:39.897Z,4.37
2018-08-13T06:07:14.928Z,4.40
2018-08-13T06:09:49.548Z,4.47
2018-08-13T06:12:24.153Z,4.53
2018-08-13T06:14:59.080Z,5.10
2018-08-13T06:17:33.827Z,5.53
2018-08-13T06:20:09.961Z,5.33
2018-08-13T06:22:44.683Z,5.92
2018-08-13T06:25:19.507Z,5.90
2018-08-13T06:27:54.192Z,6.12
2018-08-13T06:30:29.050Z,5.00
2018-08-13T06:33:10.335Z,5.27
2018-08-13T06:35:53.024Z,5.23
2018-08-13T06:38:27.913Z,5.70
2018-08-13T06:41:03.204Z,5.37
2018-08-13T06:43:44.225Z,5.77
2018-08-13T06:49:17.947Z,6.00
2018-08-13T06:52:02.884Z,5.67
2018-08-13T06:54:38.320Z,5.83
2018-08-13T06:57:12.829Z,5.00
2018-08-13T06:59:47.357Z,5.53
2018-08-13T07:02:22.068Z,5.55
2018-08-13T07:04:56.732Z,4.60
2018-08-13T07:07:31.501Z,4.73
2018-08-13T07:10:10.204Z,4.70
2018-08-13T07:12:46.009Z,4.47
2018-08-13T07:15:20.762Z,4.50
2018-08-13T07:17:55.265Z,4.77
2018-08-13T07:20:30.168Z,4.40
2018-08-13T07:23:04.841Z,4.60
2018-08-13T07:25:39.429Z,4.90
2018-08-13T07:28:16.705Z,4.50
2018-08-13T07:30:51.499Z,4.67
2018-08-13T07:33:26.191Z,5.60
2018-08-13T07:36:01.053Z,5.00
2018-08-13T07:38:36.093Z,5.00
2018-08-13T07:41:10.692Z,5.17
2018-08-13T07:43:45.232Z,4.70
2018-08-13T07:46:19.768Z,4.60
2018-08-13T07:48:54.318Z,4.53
2018-08-13T07:51:28.824Z,4.67
2018-08-13T07:54:03.502Z,5.17
2018-08-13T07:56:38.222Z,4.60
2018-08-13T07:59:13.267Z,5.17
2018-08-13T08:01:47.767Z,4.10
2018-08-13T08:04:22.368Z,4.63
2018-08-13T08:06:57.404Z,4.40
2018-08-13T08:09:31.916Z,4.60
2018-08-13T08:12:06.617Z,5.10
2018-08-13T08:14:41.422Z,4.77
2018-08-13T08:17:16.119Z,5.40
2018-08-13T08:19:50.828Z,5.00
2018-08-13T08:22:25.402Z,5.47
2018-08-13T08:25:00.172Z,5.23
2018-08-13T08:27:34.592Z,4.43
2018-08-13T08:30:10.236Z,5.22
2018-08-13T08:32:45.124Z,4.70
2018-08-13T08:35:19.868Z,4.83
2018-08-13T08:37:54.485Z,5.10
2018-08-13T08:40:29.149Z,5.00
2018-08-13T08:43:03.840Z,5.03
2018-08-13T08:45:38.504Z,4.40
2018-08-13T08:48:13.224Z,4.23
2018-08-13T08:50:47.747Z,4.50
2018-08-13T08:53:22.486Z,4.30
2018-08-13T08:55:57.006Z,4.07
2018-08-13T08:58:31.417Z,3.83
2018-08-13T09:01:06.114Z,3.67
2018-08-13T09:03:40.737Z,3.27
2018-08-13T09:06:15.383Z,3.30
2018-08-13T09:08:50.119Z,4.63
2018-08-13T09:11:24.804Z,3.20
2018-08-13T09:13:59.496Z,3.15
2018-08-13T09:16:34.384Z,3.40
2018-08-13T09:19:20.461Z,3.20
2018-08-13T09:22:07.139Z,2.90
2018-08-13T09:24:53.145Z,2.90
2018-08-13T09:27:39.021Z,2.72
2018-08-13T09:30:24.920Z,2.70
2018-08-13T09:33:10.681Z,3.17
2018-08-13T09:35:45.304Z,2.67
2018-08-13T09:38:19.887Z,3.00
2018-08-13T09:40:54.684Z,2.47
2018-08-13T09:43:29.656Z,2.73
2018-08-13T09:46:04.216Z,3.00
2018-08-13T09:48:38.856Z,2.63
2018-08-13T09:51:14.248Z,2.60
2018-08-13T09:53:49.369Z,3.13
2018-08-13T09:56:23.960Z,3.57
2018-08-13T09:58:58.455Z,2.97
2018-08-13T10:01:33.041Z,3.03
2018-08-13T10:04:19.395Z,3.23
2018-08-13T10:06:54.013Z,3.17
2018-08-13T10:09:28.951Z,3.20
2018-08-13T10:12:03.608Z,3.13
2018-08-13T10:14:38.120Z,2.70
2018-08-13T10:17:14.906Z,3.17
2018-08-13T10:19:55.407Z,3.02
2018-08-13T10:22:37.209Z,2.00
2018-08-13T10:25:16.660Z,2.00
2018-08-13T10:27:53.244Z,1.93
2018-08-13T10:30:27.963Z,1.83
2018-08-13T10:33:07.866Z,2.10
2018-08-13T10:35:42.479Z,2.10
2018-08-13T10:38:24.604Z,2.13
2018-08-13T10:41:06.560Z,2.17
2018-08-13T10:44:04.056Z,1.80
2018-08-13T10:46:39.181Z,1.97
2018-08-13T10:49:13.963Z,2.20
2018-08-13T10:51:48.768Z,2.73
2018-08-13T10:54:24.098Z,2.50
2018-08-13T10:56:58.854Z,2.53
2018-08-13T10:59:52.121Z,2.67
2018-08-13T11:05:45.096Z,2.67
2018-08-13T11:08:19.711Z,2.37
2018-08-13T11:10:54.227Z,2.60
2018-08-13T11:13:28.999Z,2.53
2018-08-13T11:16:03.533Z,2.30
2018-08-13T11:18:38.245Z,2.37
2018-08-13T11:21:12.955Z,1.93
2018-08-13T11:23:47.729Z,2.40
2018-08-13T11:26:22.417Z,2.70
2018-08-13T11:28:57.296Z,2.83
2018-08-13T11:31:31.943Z,2.63
2018-08-13T11:34:07.140Z,2.60
2018-08-13T11:36:41.647Z,2.50
2018-08-13T11:39:16.245Z,3.30
2018-08-13T11:41:50.932Z,2.70
2018-08-13T11:44:25.508Z,3.17
2018-08-13T11:47:00.185Z,2.90
2018-08-13T11:49:35.041Z,3.00
2018-08-13T11:52:09.733Z,2.22
2018-08-13T11:54:44.692Z,2.70
2018-08-13T11:57:19.468Z,2.60
2018-08-13T11:59:54.061Z,2.80
2018-08-13T12:02:28.838Z,2.83
2018-08-13T12:05:03.632Z,2.83
2018-08-13T12:07:38.371Z,2.70
2018-08-13T12:10:13.768Z,3.20
2018-08-13T12:12:48.535Z,2.70
2018-08-13T12:15:23.151Z,3.03
2018-08-13T12:17:57.844Z,3.10
2018-08-13T12:20:32.438Z,3.43
2018-08-13T12:23:07.153Z,3.45
2018-08-13T12:25:41.712Z,3.67
2018-08-13T12:28:16.264Z,3.43
2018-08-13T12:30:50.832Z,3.25
2018-08-13T12:33:25.367Z,3.53
2018-08-13T12:35:59.917Z,5.17
2018-08-13T12:38:34.625Z,3.77
2018-08-13T12:41:09.266Z,4.83
2018-08-13T12:43:43.809Z,4.93
2018-08-13T12:46:18.506Z,5.30
2018-08-13T12:48:53.157Z,9.17
2018-08-13T12:51:27.811Z,9.03
2018-08-13T12:54:02.918Z,8.43
2018-08-13T12:56:37.628Z,3.60
2018-08-13T12:59:12.405Z,2.57
2018-08-13T13:01:47.142Z,2.63
2018-08-13T13:04:21.756Z,2.53
2018-08-13T13:06:56.317Z,4.17
2018-08-13T13:09:31.143Z,5.43
2018-08-13T13:12:05.860Z,7.90
2018-08-13T13:14:40.414Z,7.37
2018-08-13T13:17:15.193Z,8.73
2018-08-13T13:19:49.741Z,7.03
2018-08-13T13:22:24.484Z,6.90
2018-08-13T13:24:59.139Z,4.83
2018-08-13T13:27:33.718Z,4.30
2018-08-13T13:30:14.692Z,3.70
2018-08-13T13:32:49.116Z,4.07
2018-08-13T13:35:23.665Z,4.57
2018-08-13T13:37:58.322Z,4.30
2018-08-13T13:40:33.040Z,4.23
2018-08-13T13:43:07.621Z,4.13
2018-08-13T13:45:42.041Z,5.63
2018-08-13T13:48:16.625Z,4.70
2018-08-13T13:50:51.498Z,3.87
2018-08-13T13:53:26.448Z,4.40
2018-08-13T13:56:00.955Z,4.60
2018-08-13T13:58:35.820Z,5.10
2018-08-13T14:01:10.600Z,5.00
2018-08-13T14:03:45.288Z,5.10
2018-08-13T14:06:20.207Z,5.20
2018-08-13T14:08:54.644Z,5.30
2018-08-13T14:11:29.246Z,5.30
2018-08-13T14:14:04.352Z,5.40
2018-08-13T14:16:39.480Z,5.77
2018-08-13T14:19:14.032Z,5.17
2018-08-13T14:21:48.715Z,5.73
2018-08-13T14:24:23.276Z,4.77
2018-08-13T14:26:57.976Z,5.00
2018-08-13T14:29:32.681Z,5.00
2018-08-13T14:32:07.439Z,4.40
2018-08-13T14:34:42.003Z,3.47
2018-08-13T14:37:16.536Z,3.40
2018-08-13T14:39:51.040Z,2.40
2018-08-13T14:42:25.631Z,2.57
2018-08-13T14:45:00.516Z,2.90
2018-08-13T14:47:35.153Z,2.33
2018-08-13T14:50:10.800Z,3.40
2018-08-13T14:52:46.765Z,2.92
2018-08-13T14:55:22.488Z,3.10
2018-08-13T14:57:56.902Z,3.57
2018-08-13T15:00:32.262Z,3.47
2018-08-13T15:03:10.891Z,4.42
2018-08-13T15:05:45.317Z,4.30
2018-08-13T15:08:19.930Z,3.63
2018-08-13T15:10:54.416Z,3.40
2018-08-13T15:13:28.984Z,3.33
2018-08-13T15:16:03.588Z,3.50
2018-08-13T15:18:38.300Z,3.80
2018-08-13T15:21:12.984Z,4.03
2018-08-13T15:23:47.668Z,3.90
2018-08-13T15:26:22.075Z,3.83
2018-08-13T15:28:56.877Z,3.70
2018-08-13T15:31:31.594Z,3.50
2018-08-13T15:34:06.167Z,2.87
2018-08-13T15:36:40.976Z,3.87
2018-08-13T15:39:15.466Z,3.70
2018-08-13T15:41:50.138Z,4.50
2018-08-13T15:47:25.216Z,4.20
2018-08-13T15:50:00.108Z,4.07
2018-08-13T15:55:33.523Z,4.03
2018-08-13T15:58:08.195Z,4.20
2018-08-13T16:00:42.940Z,5.07
2018-08-13T16:03:17.434Z,5.00
2018-08-13T16:05:52.018Z,4.70
2018-08-13T16:08:26.738Z,5.27
2018-08-13T16:11:01.278Z,5.47
2018-08-13T16:16:34.615Z,6.37
2018-08-13T16:19:09.136Z,5.80
2018-08-13T16:21:50.085Z,6.37
2018-08-13T16:24:33.467Z,5.70
2018-08-13T16:27:08.252Z,4.73
2018-08-13T16:29:42.862Z,3.50
2018-08-13T16:32:17.364Z,3.17
2018-08-13T16:34:51.981Z,3.10
2018-08-13T16:37:26.706Z,3.93
2018-08-13T16:40:01.493Z,3.90
2018-08-13T16:42:36.159Z,3.33
2018-08-13T16:45:11.812Z,3.57
2018-08-13T16:47:46.256Z,4.70
2018-08-13T16:50:28.000Z,2.90
2018-08-13T16:53:02.999Z,3.10
2018-08-13T16:55:37.440Z,3.67
2018-08-13T16:58:30.525Z,3.07
2018-08-13T17:01:14.974Z,3.00
2018-08-13T17:06:52.170Z,2.23
2018-08-13T17:09:26.778Z,2.23
2018-08-13T17:12:01.313Z,2.07
2018-08-13T17:14:36.308Z,1.73
2018-08-13T17:17:11.016Z,1.90
2018-08-13T17:19:45.463Z,1.63
2018-08-13T17:22:20.134Z,1.93
2018-08-13T17:24:54.870Z,1.87
2018-08-13T17:27:29.375Z,1.73
2018-08-13T17:30:05.608Z,1.90
2018-08-13T17:32:40.334Z,1.83
2018-08-13T17:35:15.658Z,1.90
2018-08-13T17:37:50.401Z,2.17
2018-08-13T17:40:25.966Z,2.77
2018-08-13T17:43:01.002Z,2.10
2018-08-13T17:45:35.528Z,2.30
2018-08-13T17:48:11.089Z,2.20
2018-08-13T17:50:45.687Z,1.80
2018-08-13T17:56:19.143Z,2.30
2018-08-13T17:58:53.802Z,2.30
2018-08-13T18:01:28.380Z,2.10
2018-08-13T18:04:03.055Z,2.33
2018-08-13T18:06:37.773Z,2.10
2018-08-13T18:09:12.761Z,2.20
2018-08-13T18:11:47.749Z,2.57
2018-08-13T18:14:22.596Z,2.20
2018-08-13T18:16:57.182Z,3.93
2018-08-13T18:19:42.521Z,2.80
2018-08-13T18:25:21.081Z,2.43
2018-08-13T18:28:19.160Z,2.47
2018-08-13T18:30:53.864Z,2.40
2018-08-13T18:33:28.461Z,2.47
2018-08-13T18:36:02.979Z,2.77
2018-08-13T18:38:38.100Z,2.83
2018-08-13T18:41:13.197Z,2.80
2018-08-13T18:46:47.448Z,2.63
2018-08-13T18:49:22.301Z,2.53
2018-08-13T18:51:56.871Z,2.30
2018-08-13T18:54:31.768Z,2.20
2018-08-13T18:57:06.396Z,2.40
2018-08-13T18:59:41.408Z,2.33
2018-08-13T19:02:16.065Z,2.17
2018-08-13T19:04:51.187Z,2.07
2018-08-13T19:07:25.641Z,2.20
2018-08-13T19:10:00.204Z,2.10
2018-08-13T19:12:34.832Z,2.20
2018-08-13T19:15:12.264Z,2.30
2018-08-13T19:17:46.934Z,2.30
2018-08-13T19:20:21.743Z,2.23
2018-08-13T19:22:56.623Z,2.13
2018-08-13T19:25:31.344Z,2.00
2018-08-13T19:28:06.796Z,2.27
2018-08-13T19:30:41.762Z,1.83
2018-08-13T19:33:16.375Z,2.00
2018-08-13T19:35:51.082Z,1.70
2018-08-13T19:38:26.829Z,2.03
2018-08-13T19:41:01.490Z,1.90
2018-08-13T19:43:36.162Z,1.77
2018-08-13T19:46:11.237Z,1.98
2018-08-13T19:48:45.664Z,2.00
2018-08-13T19:51:20.198Z,2.10
2018-08-13T19:53:54.864Z,2.50
2018-08-13T19:56:29.529Z,2.43
2018-08-13T19:59:04.182Z,2.03
2018-08-13T20:01:38.894Z,2.03
2018-08-13T20:04:13.609Z,2.30
2018-08-13T20:06:48.257Z,2.30
2018-08-13T20:09:22.907Z,1.70
2018-08-13T20:11:57.668Z,1.98
2018-08-13T20:14:32.197Z,1.80
2018-08-13T20:17:07.322Z,1.80
2018-08-13T20:19:41.992Z,2.20
2018-08-13T20:22:16.681Z,2.20
2018-08-13T20:24:51.317Z,2.00
2018-08-13T20:30:25.904Z,1.93
2018-08-13T20:33:00.591Z,1.90
2018-08-13T20:35:35.373Z,2.30
2018-08-13T20:38:10.000Z,2.10
2018-08-13T20:40:44.783Z,1.93
2018-08-13T20:43:19.352Z,2.17
2018-08-13T20:45:54.140Z,2.30
2018-08-13T20:48:28.814Z,2.20
2018-08-13T20:51:03.579Z,2.57
2018-08-13T20:53:38.191Z,2.20
2018-08-13T20:56:12.885Z,2.30
2018-08-13T20:58:47.464Z,2.60
2018-08-13T21:01:22.463Z,2.57
2018-08-13T21:03:57.095Z,2.50
2018-08-13T21:06:31.857Z,2.63
2018-08-13T21:09:09.451Z,2.50
2018-08-13T21:11:43.945Z,2.30
2018-08-13T21:14:18.444Z,2.37
2018-08-13T21:16:52.854Z,2.27
2018-08-13T21:19:27.584Z,2.50
2018-08-13T21:22:02.595Z,2.60
2018-08-13T21:24:38.851Z,2.30
2018-08-13T21:27:13.420Z,2.70
2018-08-13T21:29:47.992Z,2.63
2018-08-13T21:32:22.940Z,2.50
2018-08-13T21:34:57.631Z,2.83
2018-08-13T21:37:32.527Z,2.67
2018-08-13T21:40:08.533Z,3.10
2018-08-13T21:42:43.124Z,2.83
2018-08-13T21:45:17.718Z,3.10
2018-08-13T21:47:52.276Z,3.03
2018-08-13T21:50:27.161Z,3.10
2018-08-13T21:53:01.601Z,3.03
2018-08-13T21:55:36.270Z,3.30
2018-08-13T21:58:10.904Z,3.57
2018-08-13T22:00:51.164Z,3.60
2018-08-13T22:03:25.820Z,3.40
2018-08-13T22:06:00.453Z,4.00
2018-08-13T22:08:35.146Z,3.50
2018-08-13T22:11:10.452Z,4.40
2018-08-13T22:13:45.349Z,4.27
2018-08-13T22:16:19.988Z,4.17
2018-08-13T22:18:54.633Z,4.37
2018-08-13T22:21:29.133Z,3.97
2018-08-13T22:24:15.138Z,4.30
2018-08-13T22:26:49.711Z,4.23
2018-08-13T22:29:24.202Z,4.27
2018-08-13T22:31:58.688Z,4.37
2018-08-13T22:34:33.338Z,4.23
2018-08-13T22:37:07.928Z,4.27
2018-08-13T22:39:42.670Z,4.55
2018-08-13T22:42:17.267Z,3.90
2018-08-13T22:44:51.817Z,4.00
2018-08-13T22:47:26.309Z,3.80
2018-08-13T22:50:00.921Z,4.35
2018-08-13T22:52:35.674Z,4.50
2018-08-13T22:55:11.956Z,4.45
2018-08-13T22:57:46.773Z,4.53
2018-08-13T23:00:21.664Z,4.70
2018-08-13T23:02:56.159Z,4.77
2018-08-13T23:05:30.772Z,5.07
2018-08-13T23:08:05.751Z,4.50
2018-08-13T23:10:40.405Z,4.80
2018-08-13T23:13:15.852Z,5.67
2018-08-13T23:15:50.304Z,5.20
2018-08-13T23:18:25.071Z,5.97
2018-08-13T23:20:59.603Z,5.00
2018-08-13T23:23:34.390Z,5.50
2018-08-13T23:26:09.416Z,5.93
2018-08-13T23:28:43.988Z,5.93
2018-08-13T23:31:18.617Z,5.53
2018-08-13T23:39:52.330Z,6.53
2018-08-13T23:42:27.303Z,6.67
2018-08-13T23:45:01.920Z,7.30
2018-08-13T23:47:36.668Z,7.00
2018-08-13T23:50:13.290Z,7.20
2018-08-13T23:52:48.753Z,7.60
2018-08-13T23:55:33.027Z,7.40
2018-08-13T23:58:14.621Z,7.80
